Time;durP1;ratioP1;P1;durP2;ratioP2;P2;SDS_P1;SDS_P2;PMS_P1;PMS_P2;Temp;Humidity;BMP_temperature;BMP_pressure;BME280_temperature;BME280_humidity;BME280_pressure;Samples;Min_cycle;Max_cycle;Signal;HPM_P1;HPM_P2
2021/03/27 00:00:19;;;;;;;9.23;3.23;;;6.40;99.90;;;;;;5084922;28;20690;-82
2021/03/27 00:02:51;;;;;;;8.27;3.87;;;6.50;99.90;;;;;;5084679;28;20287;-81
2021/03/27 00:05:22;;;;;;;8.80;3.17;;;6.40;99.90;;;;;;5093141;28;20218;-81
2021/03/27 00:07:59;;;;;;;8.63;3.77;;;6.50;99.90;;;;;;5091148;28;20242;-82
2021/03/27 00:10:29;;;;;;;6.40;3.23;;;6.50;99.90;;;;;;5093266;28;20221;-81
2021/03/27 00:13:02;;;;;;;8.73;3.53;;;6.40;99.90;;;;;;5093296;28;20219;-81
2021/03/27 00:15:34;;;;;;;9.80;3.67;;;6.30;99.90;;;;;;5093302;28;20230;-82
2021/03/27 00:18:08;;;;;;;14.20;3.33;;;6.20;99.90;;;;;;5094272;28;20212;-81
2021/03/27 00:20:39;;;;;;;8.90;3.40;;;6.30;99.90;;;;;;5090441;28;20291;-80
2021/03/27 00:23:15;;;;;;;7.40;3.20;;;6.40;99.90;;;;;;5081573;28;20204;-80
2021/03/27 00:25:47;;;;;;;7.30;2.90;;;6.40;99.90;;;;;;5087084;28;20822;-81
2021/03/27 00:28:20;;;;;;;12.20;3.07;;;6.30;99.90;;;;;;5100570;28;20283;-80
2021/03/27 00:30:50;;;;;;;8.57;3.00;;;6.30;99.90;;;;;;5082255;28;20289;-83
2021/03/27 00:33:19;;;;;;;8.30;2.60;;;6.30;99.90;;;;;;5093926;28;20758;-81
2021/03/27 00:35:52;;;;;;;8.70;2.63;;;6.40;99.90;;;;;;5087422;28;20256;-80
2021/03/27 00:38:36;;;;;;;8.17;2.40;;;6.40;99.90;;;;;;5078443;28;20196;-81
2021/03/27 00:41:07;;;;;;;6.60;2.03;;;6.40;99.90;;;;;;5086154;28;20221;-82
2021/03/27 00:43:39;;;;;;;11.57;2.27;;;6.40;99.90;;;;;;5087508;28;20232;-81
2021/03/27 00:46:09;;;;;;;6.97;2.07;;;6.40;99.90;;;;;;5088478;28;20780;-81
2021/03/27 00:48:39;;;;;;;5.53;2.37;;;6.40;99.90;;;;;;5088342;28;20665;-82
2021/03/27 00:51:11;;;;;;;10.07;2.43;;;6.50;99.90;;;;;;5088927;28;20642;-81
2021/03/27 00:53:40;;;;;;;9.40;2.40;;;6.50;99.90;;;;;;5088980;28;20728;-81
2021/03/27 00:56:12;;;;;;;8.70;2.50;;;6.50;99.90;;;;;;5089831;28;20230;-82
2021/03/27 00:58:46;;;;;;;7.13;2.50;;;6.50;99.90;;;;;;5077677;28;20283;-82
2021/03/27 01:01:17;;;;;;;5.50;2.20;;;6.40;99.90;;;;;;5094401;28;20213;-82
2021/03/27 01:03:45;;;;;;;8.13;2.60;;;6.30;99.90;;;;;;5088308;28;20291;-80
2021/03/27 01:06:17;;;;;;;9.27;2.50;;;6.30;99.90;;;;;;5081816;28;20207;-82
2021/03/27 01:08:48;;;;;;;9.30;2.47;;;6.20;99.90;;;;;;5084670;28;21032;-79
2021/03/27 01:11:21;;;;;;;11.03;2.27;;;6.20;99.90;;;;;;5087828;28;20208;-79
2021/03/27 01:13:51;;;;;;;6.53;2.33;;;6.10;99.90;;;;;;5081185;28;20210;-81
2021/03/27 01:16:23;;;;;;;9.93;2.47;;;6.10;99.90;;;;;;5084899;28;20314;-79
2021/03/27 01:18:56;;;;;;;10.97;2.40;;;6.00;99.90;;;;;;5088697;28;20700;-83
2021/03/27 01:21:26;;;;;;;13.67;2.50;;;6.00;99.90;;;;;;5082327;28;20345;-80
2021/03/27 01:23:56;;;;;;;10.77;2.17;;;5.90;99.90;;;;;;5088253;28;20203;-82
2021/03/27 01:26:25;;;;;;;8.30;2.10;;;5.90;99.90;;;;;;5085151;28;20216;-81
2021/03/27 01:28:57;;;;;;;11.27;2.60;;;5.90;99.90;;;;;;5083612;28;20239;-79
2021/03/27 01:31:36;;;;;;;8.13;2.00;;;5.90;99.90;;;;;;5079173;28;20283;-80
2021/03/27 01:34:06;;;;;;;13.07;2.33;;;5.80;99.90;;;;;;5086221;28;20204;-82
2021/03/27 01:36:41;;;;;;;11.70;2.90;;;5.80;99.90;;;;;;5094859;28;20231;-80
2021/03/27 01:39:12;;;;;;;10.03;2.30;;;5.80;99.90;;;;;;5091723;28;20214;-80
2021/03/27 01:41:53;;;;;;;15.77;2.13;;;5.80;99.90;;;;;;5090054;28;20221;-81
2021/03/27 01:44:33;;;;;;;8.67;1.80;;;5.80;99.90;;;;;;5085882;28;20237;-81
2021/03/27 01:47:07;;;;;;;12.17;2.50;;;5.70;99.90;;;;;;5091840;28;20208;-81
2021/03/27 01:49:46;;;;;;;8.77;1.83;;;5.70;99.90;;;;;;5087664;28;20694;-82
2021/03/27 01:52:22;;;;;;;7.80;1.80;;;5.60;99.90;;;;;;5079621;28;20306;-84
2021/03/27 01:54:56;;;;;;;12.50;2.17;;;5.60;99.90;;;;;;5092804;28;20275;-82
2021/03/27 01:57:31;;;;;;;9.27;1.90;;;5.60;99.90;;;;;;5080836;28;20229;-84
2021/03/27 02:00:00;;;;;;;8.43;1.90;;;5.60;99.90;;;;;;5085060;28;20281;-81
2021/03/27 02:02:33;;;;;;;9.10;2.37;;;5.60;99.90;;;;;;5085087;28;20214;-83
2021/03/27 02:05:06;;;;;;;9.20;2.37;;;5.60;99.90;;;;;;5084599;28;20201;-81
2021/03/27 02:07:44;;;;;;;8.37;2.07;;;5.60;99.90;;;;;;5109609;28;20196;-81
2021/03/27 02:10:22;;;;;;;9.93;2.70;;;5.70;99.90;;;;;;5109075;28;20204;-84
2021/03/27 02:12:58;;;;;;;13.73;2.30;;;5.70;99.90;;;;;;5109887;28;20294;-80
2021/03/27 02:15:39;;;;;;;10.23;2.23;;;5.80;99.90;;;;;;5115375;28;20206;-82
2021/03/27 02:18:14;;;;;;;10.03;2.40;;;5.80;99.90;;;;;;5094510;28;20225;-82
2021/03/27 02:21:13;;;;;;;14.13;2.60;;;5.80;99.90;;;;;;5086426;28;20209;-84
2021/03/27 02:23:58;;;;;;;15.73;2.67;;;5.90;99.90;;;;;;5044528;28;20200;-84
2021/03/27 02:26:51;;;;;;;17.33;2.53;;;6.00;99.90;;;;;;5094442;28;20202;-85
2021/03/27 02:29:56;;;;;;;12.43;2.43;;;6.00;99.90;;;;;;5075942;28;20628;-84
2021/03/27 02:32:36;;;;;;;14.40;2.50;;;6.00;99.90;;;;;;5083894;28;20194;-84
2021/03/27 02:35:11;;;;;;;11.37;2.13;;;6.00;99.90;;;;;;5095548;28;20643;-84
2021/03/27 02:37:40;;;;;;;14.17;2.50;;;6.00;99.90;;;;;;5096133;28;20232;-86
2021/03/27 02:40:11;;;;;;;16.60;2.87;;;6.10;99.90;;;;;;5088217;28;20238;-84
2021/03/27 02:42:55;;;;;;;12.57;4.10;;;6.20;99.90;;;;;;5077116;28;20201;-83
2021/03/27 02:45:27;;;;;;;14.70;2.60;;;6.10;99.90;;;;;;5086719;28;20225;-81
2021/03/27 02:48:10;;;;;;;10.90;2.97;;;6.20;99.90;;;;;;5091911;28;20232;-84
2021/03/27 02:51:06;;;;;;;12.13;2.63;;;6.10;99.90;;;;;;5088689;28;20223;-82
2021/03/27 02:53:43;;;;;;;15.57;2.73;;;6.20;99.90;;;;;;5088158;28;20284;-83
2021/03/27 02:56:30;;;;;;;19.90;2.63;;;6.20;99.90;;;;;;5085619;28;20226;-84
2021/03/27 02:59:33;;;;;;;15.87;2.43;;;6.20;99.90;;;;;;5072496;28;20286;-83
2021/03/27 03:02:04;;;;;;;13.43;2.57;;;6.20;99.90;;;;;;5071687;28;20219;-78
2021/03/27 03:04:41;;;;;;;11.13;3.00;;;6.30;99.90;;;;;;5091876;28;20215;-82
2021/03/27 03:07:12;;;;;;;12.60;2.57;;;6.30;99.90;;;;;;5095016;28;20203;-80
2021/03/27 03:09:47;;;;;;;13.87;2.80;;;6.40;99.90;;;;;;5088612;28;20205;-82
2021/03/27 03:12:19;;;;;;;15.00;2.50;;;6.40;99.90;;;;;;5089312;28;20192;-80
2021/03/27 03:14:59;;;;;;;10.67;1.97;;;6.50;99.90;;;;;;5085256;28;20218;-83
2021/03/27 03:17:38;;;;;;;14.50;3.03;;;6.50;99.90;;;;;;5090170;28;20310;-81
2021/03/27 03:20:16;;;;;;;21.30;2.93;;;6.50;99.90;;;;;;5086494;28;20228;-81
2021/03/27 03:22:52;;;;;;;13.23;2.80;;;6.40;99.90;;;;;;5085856;28;20200;-84
2021/03/27 03:25:22;;;;;;;9.50;1.87;;;6.40;99.90;;;;;;5095122;28;20212;-83
2021/03/27 03:28:11;;;;;;;12.33;2.43;;;6.40;99.90;;;;;;5084814;28;20200;-82
2021/03/27 03:30:49;;;;;;;15.20;2.50;;;6.40;99.90;;;;;;5091865;28;20734;-80
2021/03/27 03:33:31;;;;;;;12.77;2.40;;;6.40;99.90;;;;;;5087308;28;20225;-82
2021/03/27 03:36:01;;;;;;;17.80;2.30;;;6.40;99.90;;;;;;5083257;28;20250;-83
2021/03/27 03:38:51;;;;;;;17.33;2.53;;;6.30;99.90;;;;;;5092037;28;20700;-81
2021/03/27 03:41:35;;;;;;;10.57;2.20;;;6.20;99.90;;;;;;5087781;28;20561;-81
2021/03/27 03:44:08;;;;;;;10.83;2.10;;;6.20;99.90;;;;;;5090257;28;20199;-81
2021/03/27 03:46:52;;;;;;;11.93;2.07;;;6.10;99.90;;;;;;5099101;28;20259;-82
2021/03/27 03:49:37;;;;;;;19.73;2.70;;;6.00;99.90;;;;;;5094422;28;20204;-81
2021/03/27 03:52:28;;;;;;;17.80;2.83;;;6.00;99.90;;;;;;5093117;28;20242;-81
2021/03/27 03:55:07;;;;;;;17.80;2.33;;;6.00;99.90;;;;;;5086550;28;20282;-82
2021/03/27 03:57:49;;;;;;;15.23;2.97;;;6.00;99.90;;;;;;5090312;28;20260;-81
2021/03/27 04:00:21;;;;;;;15.20;2.83;;;6.00;99.90;;;;;;5103400;28;20545;-80
2021/03/27 04:02:57;;;;;;;12.50;2.20;;;6.00;99.90;;;;;;5105013;28;20196;-82
2021/03/27 04:05:34;;;;;;;19.73;2.70;;;6.10;99.90;;;;;;5093870;28;20232;-81
2021/03/27 04:08:09;;;;;;;15.80;2.70;;;6.20;99.90;;;;;;5093890;28;20670;-84
2021/03/27 04:10:36;;;;;;;18.27;2.50;;;6.20;99.90;;;;;;5085329;28;20250;-81
2021/03/27 04:13:08;;;;;;;15.03;2.00;;;6.20;99.90;;;;;;5079888;28;20635;-82
2021/03/27 04:15:40;;;;;;;18.77;2.30;;;6.30;99.90;;;;;;5087069;28;20214;-82
2021/03/27 04:18:14;;;;;;;18.13;2.67;;;6.30;99.90;;;;;;5089449;28;20280;-82
2021/03/27 04:20:53;;;;;;;18.40;3.10;;;6.30;99.90;;;;;;5090375;28;20287;-81
2021/03/27 04:23:28;;;;;;;16.50;2.80;;;6.30;99.90;;;;;;5091061;28;20282;-80
2021/03/27 04:26:18;;;;;;;24.57;3.40;;;6.40;99.90;;;;;;5076414;28;20676;-78
2021/03/27 04:28:56;;;;;;;17.57;2.97;;;6.30;99.90;;;;;;5093408;28;20202;-83
2021/03/27 04:31:28;;;;;;;16.53;2.40;;;6.30;99.90;;;;;;5077816;28;20286;-79
2021/03/27 04:34:04;;;;;;;11.57;2.10;;;6.30;99.90;;;;;;5089080;28;20213;-81
2021/03/27 04:36:39;;;;;;;14.83;2.60;;;6.30;99.90;;;;;;5068744;28;20243;-82
2021/03/27 04:39:12;;;;;;;11.70;2.00;;;6.20;99.90;;;;;;5097223;28;20191;-83
2021/03/27 04:41:45;;;;;;;8.90;1.73;;;6.20;99.90;;;;;;5091239;28;20200;-82
2021/03/27 04:44:23;;;;;;;12.57;1.70;;;6.20;99.90;;;;;;5077569;28;20259;-85
2021/03/27 04:46:56;;;;;;;8.17;1.40;;;6.20;99.90;;;;;;5092064;28;20217;-84
2021/03/27 04:49:29;;;;;;;11.53;1.83;;;6.00;99.90;;;;;;5096686;28;20293;-85
2021/03/27 04:52:10;;;;;;;10.50;2.10;;;6.00;99.90;;;;;;5085822;28;20295;-80
2021/03/27 04:54:51;;;;;;;7.57;0.83;;;5.80;99.90;;;;;;5081131;28;20287;-81
2021/03/27 04:57:33;;;;;;;3.77;0.47;;;5.70;99.90;;;;;;5082956;28;20577;-81
2021/03/27 05:00:29;;;;;;;3.27;0.50;;;5.50;99.90;;;;;;5086069;28;20283;-81
2021/03/27 05:03:17;;;;;;;3.60;1.00;;;5.30;99.90;;;;;;5080074;28;20296;-82
2021/03/27 05:05:54;;;;;;;7.57;1.00;;;5.20;99.90;;;;;;5103253;28;20228;-84
2021/03/27 05:08:42;;;;;;;5.30;1.33;;;5.10;99.90;;;;;;5080500;28;20375;-84
2021/03/27 05:11:24;;;;;;;6.57;1.20;;;5.10;99.90;;;;;;5082147;28;20291;-83
2021/03/27 05:14:01;;;;;;;4.93;1.30;;;5.20;99.90;;;;;;5077377;28;20256;-84
2021/03/27 05:16:32;;;;;;;6.93;1.27;;;5.20;99.90;;;;;;5089676;28;20235;-80
2021/03/27 05:19:03;;;;;;;6.37;0.90;;;5.20;99.90;;;;;;5079020;28;20208;-81
2021/03/27 05:21:46;;;;;;;8.55;1.20;;;5.20;99.90;;;;;;5087566;28;20440;-84
2021/03/27 05:24:23;;;;;;;5.00;1.00;;;5.20;99.90;;;;;;5075954;28;20651;-80
2021/03/27 05:27:00;;;;;;;13.70;1.40;;;5.30;99.90;;;;;;5088373;28;20721;-80
2021/03/27 05:29:42;;;;;;;4.07;1.10;;;5.30;99.90;;;;;;5078945;28;20225;-80
2021/03/27 05:32:29;;;;;;;8.37;0.90;;;5.30;99.90;;;;;;5076647;28;20218;-81
2021/03/27 05:35:02;;;;;;;9.47;1.17;;;5.20;99.90;;;;;;5079443;28;20209;-82
2021/03/27 05:37:45;;;;;;;5.93;1.00;;;5.20;99.90;;;;;;5082289;28;20246;-80
2021/03/27 05:40:57;;;;;;;9.77;1.17;;;5.10;99.90;;;;;;5091594;28;20733;-79
2021/03/27 05:43:44;;;;;;;7.87;1.20;;;5.00;99.90;;;;;;5026040;28;20222;-81
2021/03/27 05:46:58;;;;;;;7.83;1.20;;;5.00;99.90;;;;;;5092907;28;20231;-80
2021/03/27 05:49:54;;;;;;;14.77;1.50;;;5.00;99.90;;;;;;4995112;28;20317;-83
2021/03/27 05:52:46;;;;;;;8.07;1.00;;;5.00;99.90;;;;;;4975141;28;20706;-81
2021/03/27 05:55:36;;;;;;;7.53;1.20;;;5.00;99.90;;;;;;5075421;28;20210;-81
2021/03/27 05:58:37;;;;;;;8.23;1.43;;;4.90;99.90;;;;;;5086263;28;20236;-81
2021/03/27 06:01:34;;;;;;;7.90;1.17;;;4.90;99.90;;;;;;5081839;28;20292;-81
2021/03/27 06:04:17;;;;;;;8.90;1.50;;;4.90;99.90;;;;;;5092319;28;20213;-81
2021/03/27 06:07:27;;;;;;;7.00;1.30;;;4.90;99.90;;;;;;5088549;28;20284;-80
2021/03/27 06:10:18;;;;;;;8.73;1.13;;;4.90;99.90;;;;;;5071692;28;20365;-80
2021/03/27 06:13:02;;;;;;;8.97;1.40;;;4.90;99.90;;;;;;5085112;28;20292;-80
2021/03/27 06:15:57;;;;;;;3.97;1.00;;;5.00;99.90;;;;;;5095243;28;20211;-79
2021/03/27 06:18:52;;;;;;;8.20;1.97;;;5.10;99.90;;;;;;5084210;28;20785;-80
2021/03/27 06:21:27;;;;;;;6.70;1.60;;;5.10;99.90;;;;;;5074803;28;20228;-81
2021/03/27 06:24:08;;;;;;;9.53;1.73;;;5.20;99.90;;;;;;5094519;28;20242;-80
2021/03/27 06:26:59;;;;;;;9.60;2.03;;;5.30;99.90;;;;;;5090361;28;20246;-82
2021/03/27 06:30:03;;;;;;;11.37;2.33;;;5.50;99.90;;;;;;5080591;28;20287;-82
2021/03/27 06:33:14;;;;;;;10.67;2.37;;;5.60;99.90;;;;;;5084153;28;20226;-81
2021/03/27 06:36:20;;;;;;;8.97;2.60;;;5.80;99.90;;;;;;5086092;28;20294;-82
2021/03/27 06:39:16;;;;;;;9.20;2.40;;;6.20;99.90;;;;;;5071436;28;20202;-81
2021/03/27 06:42:08;;;;;;;8.97;3.17;;;6.40;99.90;;;;;;5083874;28;20602;-81
2021/03/27 06:45:11;;;;;;;10.80;2.90;;;6.70;99.90;;;;;;5076264;28;20203;-80
2021/03/27 06:48:05;;;;;;;17.70;3.20;;;6.80;99.90;;;;;;5083204;28;20302;-82
2021/03/27 06:51:14;;;;;;;18.13;4.40;;;6.90;99.90;;;;;;5084828;28;20241;-80
2021/03/27 06:54:23;;;;;;;17.53;4.10;;;7.00;99.90;;;;;;5078732;28;20295;-80
2021/03/27 06:57:02;;;;;;;14.33;3.83;;;7.00;99.90;;;;;;5086008;28;20225;-80
2021/03/27 07:00:01;;;;;;;8.90;2.70;;;7.00;99.90;;;;;;5084633;28;20291;-84
2021/03/27 07:03:01;;;;;;;11.53;2.43;;;7.10;99.90;;;;;;5102606;28;20202;-81
2021/03/27 07:06:13;;;;;;;12.43;2.70;;;7.20;99.90;;;;;;5055326;28;20192;-82
2021/03/27 07:08:55;;;;;;;16.30;2.50;;;7.30;99.90;;;;;;5101946;28;20295;-81
2021/03/27 07:11:50;;;;;;;13.20;2.30;;;7.30;99.90;;;;;;5090449;28;20204;-80
2021/03/27 07:15:05;;;;;;;20.70;2.40;;;7.20;99.90;;;;;;5084894;28;20226;-78
2021/03/27 07:17:45;;;;;;;13.43;2.17;;;7.10;99.90;;;;;;5054343;28;20236;-80
2021/03/27 07:20:41;;;;;;;9.77;2.47;;;7.20;99.90;;;;;;5075678;28;20755;-80
2021/03/27 07:23:33;;;;;;;14.57;1.80;;;7.30;99.90;;;;;;5074556;28;20219;-78
2021/03/27 07:26:31;;;;;;;8.43;1.80;;;7.60;99.90;;;;;;5090898;28;20205;-82
2021/03/27 07:29:10;;;;;;;13.63;2.10;;;7.50;99.90;;;;;;5092234;28;20730;-81
2021/03/27 07:32:18;;;;;;;11.53;2.60;;;7.50;99.90;;;;;;5094442;28;20197;-79
2021/03/27 07:34:56;;;;;;;12.50;2.00;;;7.60;99.90;;;;;;5086244;28;20599;-81
2021/03/27 07:38:04;;;;;;;9.43;1.60;;;7.80;99.90;;;;;;5083517;28;20691;-81
2021/03/27 07:40:41;;;;;;;19.90;3.63;;;8.10;99.90;;;;;;5071520;28;20211;-82
2021/03/27 07:43:45;;;;;;;12.93;2.00;;;8.30;99.90;;;;;;5085110;28;20254;-80
2021/03/27 07:46:47;;;;;;;13.87;2.20;;;8.40;99.90;;;;;;5064584;28;20283;-79
2021/03/27 07:49:47;;;;;;;15.37;2.50;;;8.50;99.90;;;;;;5045435;28;20287;-79
2021/03/27 07:52:26;;;;;;;10.17;1.60;;;8.20;99.90;;;;;;5084195;28;20204;-79
2021/03/27 07:55:23;;;;;;;11.20;1.70;;;8.00;99.90;;;;;;5074642;28;20217;-81
2021/03/27 07:58:01;;;;;;;15.60;1.73;;;7.90;99.90;;;;;;5073473;28;20224;-81
2021/03/27 08:00:53;;;;;;;13.87;2.27;;;7.90;99.90;;;;;;5087666;28;20196;-82
2021/03/27 08:04:14;;;;;;;10.10;2.10;;;7.90;99.90;;;;;;5090741;28;20288;-84
2021/03/27 08:06:50;;;;;;;14.90;2.27;;;8.10;99.90;;;;;;5091696;28;20287;-81
2021/03/27 08:09:52;;;;;;;10.73;1.83;;;8.20;99.90;;;;;;5083125;28;20232;-82
2021/03/27 08:12:30;;;;;;;17.53;2.00;;;8.30;99.90;;;;;;5079639;28;20224;-80
2021/03/27 08:15:24;;;;;;;13.27;2.20;;;8.50;99.90;;;;;;5090126;28;20204;-78
2021/03/27 08:18:33;;;;;;;12.10;2.03;;;8.80;99.90;;;;;;5076472;28;20225;-79
2021/03/27 08:21:01;;;;;;;8.93;1.77;;;9.00;99.90;;;;;;5078575;28;20244;-82
2021/03/27 08:23:43;;;;;;;11.63;2.07;;;9.20;99.90;;;;;;5086871;28;20704;-79
2021/03/27 08:26:35;;;;;;;13.10;2.00;;;9.20;99.90;;;;;;5086781;28;20203;-81
2021/03/27 08:29:46;;;;;;;11.27;2.00;;;9.20;99.90;;;;;;5078005;28;20294;-81
2021/03/27 08:32:58;;;;;;;14.57;2.50;;;9.20;99.90;;;;;;5076347;28;20346;-81
2021/03/27 08:35:51;;;;;;;10.07;2.10;;;9.60;99.90;;;;;;5077567;28;20673;-81
2021/03/27 08:38:29;;;;;;;11.73;2.20;;;9.70;99.90;;;;;;5086925;28;20307;-81
2021/03/27 08:41:26;;;;;;;16.60;2.10;;;9.80;99.90;;;;;;5085500;28;20207;-80
2021/03/27 08:44:39;;;;;;;14.97;2.50;;;9.90;99.90;;;;;;5080560;28;20638;-80
2021/03/27 08:47:30;;;;;;;14.27;2.37;;;10.00;99.90;;;;;;5088195;28;20256;-81
2021/03/27 08:50:45;;;;;;;10.03;2.27;;;10.00;99.90;;;;;;5088157;28;20211;-83
2021/03/27 08:53:32;;;;;;;15.77;2.37;;;10.10;99.90;;;;;;5087096;28;20284;-80
2021/03/27 08:56:31;;;;;;;14.37;2.70;;;10.10;99.90;;;;;;5079970;28;20194;-80
2021/03/27 08:59:06;;;;;;;14.27;2.20;;;10.00;99.90;;;;;;5084140;28;20789;-80
2021/03/27 09:02:12;;;;;;;8.87;2.10;;;9.70;99.90;;;;;;5079110;28;20203;-81
2021/03/27 09:04:51;;;;;;;10.50;2.27;;;9.60;99.90;;;;;;5076592;28;20296;-83
2021/03/27 09:07:40;;;;;;;10.70;2.13;;;9.70;99.90;;;;;;5073553;28;20274;-80
2021/03/27 09:10:40;;;;;;;11.17;2.30;;;9.70;99.90;;;;;;5079456;28;20196;-81
2021/03/27 09:13:39;;;;;;;13.50;2.03;;;9.70;99.90;;;;;;5090865;28;20245;-79
2021/03/27 09:16:45;;;;;;;9.53;2.17;;;10.10;99.90;;;;;;5075065;28;20296;-80
2021/03/27 09:19:33;;;;;;;9.23;2.00;;;10.40;99.90;;;;;;5086986;28;20291;-80
2021/03/27 09:22:45;;;;;;;8.80;2.50;;;10.60;99.90;;;;;;5093559;28;20213;-82
2021/03/27 09:25:34;;;;;;;8.77;2.00;;;10.40;99.90;;;;;;5079503;28;20288;-82
2021/03/27 09:28:22;;;;;;;8.87;2.00;;;10.00;99.90;;;;;;5073456;28;20692;-80
2021/03/27 09:31:12;;;;;;;10.43;1.87;;;9.90;99.90;;;;;;5093980;28;20284;-80
2021/03/27 09:33:42;;;;;;;7.70;1.97;;;10.30;99.90;;;;;;5035903;28;20255;-81
2021/03/27 09:36:26;;;;;;;8.87;1.90;;;10.50;99.90;;;;;;5087087;28;20252;-78
2021/03/27 09:39:06;;;;;;;10.13;1.97;;;10.80;99.90;;;;;;5086030;28;20285;-82
2021/03/27 09:42:01;;;;;;;7.30;1.80;;;10.90;99.90;;;;;;5097686;28;20299;-80
2021/03/27 09:45:01;;;;;;;9.37;2.10;;;10.90;99.90;;;;;;5070260;28;20241;-78
2021/03/27 09:47:54;;;;;;;9.67;2.40;;;11.60;99.90;;;;;;5089756;28;20603;-80
2021/03/27 09:50:31;;;;;;;7.40;2.23;;;12.60;99.90;;;;;;5088049;28;20219;-82
2021/03/27 09:53:06;;;;;;;10.90;2.37;;;12.60;99.90;;;;;;5093206;28;20283;-80
2021/03/27 09:55:48;;;;;;;8.23;2.10;;;12.80;99.90;;;;;;5091437;28;20229;-81
2021/03/27 09:58:39;;;;;;;6.37;1.47;;;13.00;99.90;;;;;;5082356;28;20265;-81
2021/03/27 10:01:25;;;;;;;10.33;1.63;;;12.20;99.90;;;;;;5087019;28;20206;-81
2021/03/27 10:04:20;;;;;;;7.90;1.83;;;12.70;99.90;;;;;;5084896;28;20237;-80
2021/03/27 10:07:11;;;;;;;6.43;1.73;;;13.50;99.90;;;;;;5084336;28;20677;-80
2021/03/27 10:09:51;;;;;;;7.53;1.97;;;13.70;99.90;;;;;;5081733;28;20234;-79
2021/03/27 10:12:22;;;;;;;7.60;1.50;;;14.60;99.90;;;;;;5077900;28;20265;-80
2021/03/27 10:14:54;;;;;;;9.20;1.73;;;14.50;99.90;;;;;;5084205;28;20261;-80
2021/03/27 10:17:29;;;;;;;8.70;2.33;;;14.30;99.90;;;;;;5077077;28;20220;-80
2021/03/27 10:20:03;;;;;;;7.57;1.60;;;14.70;99.90;;;;;;5077405;28;20278;-82
2021/03/27 10:22:39;;;;;;;8.67;1.83;;;15.70;99.90;;;;;;5085199;28;20572;-81
2021/03/27 10:25:17;;;;;;;7.20;1.40;;;15.00;99.90;;;;;;5086336;28;20214;-80
2021/03/27 10:27:51;;;;;;;8.43;1.87;;;14.30;99.90;;;;;;5084052;28;20198;-78
2021/03/27 10:30:21;;;;;;;7.80;1.50;;;13.80;99.90;;;;;;5080390;28;20719;-80
2021/03/27 10:33:03;;;;;;;4.37;1.43;;;13.50;99.90;;;;;;5083913;28;20207;-81
2021/03/27 10:35:51;;;;;;;7.03;1.63;;;14.30;99.90;;;;;;5081748;28;20244;-84
2021/03/27 10:38:35;;;;;;;6.57;1.70;;;14.70;99.90;;;;;;5081312;28;20219;-81
2021/03/27 10:41:05;;;;;;;10.57;1.53;;;13.80;99.90;;;;;;5076739;28;20668;-82
2021/03/27 10:43:49;;;;;;;6.73;1.53;;;13.60;99.90;;;;;;5084078;28;20691;-79
2021/03/27 10:46:26;;;;;;;5.90;1.70;;;14.40;99.90;;;;;;5080849;28;20703;-81
2021/03/27 10:49:16;;;;;;;5.13;1.40;;;14.60;99.90;;;;;;5086383;28;20201;-80
2021/03/27 10:52:11;;;;;;;10.37;1.43;;;13.80;99.90;;;;;;5085123;28;20289;-81
2021/03/27 10:55:19;;;;;;;6.30;1.20;;;12.50;99.90;;;;;;5084859;28;20243;-80
2021/03/27 10:58:19;;;;;;;6.33;1.70;;;13.40;99.90;;;;;;5028243;28;20283;-80
2021/03/27 11:00:56;;;;;;;7.77;1.37;;;14.20;99.90;;;;;;5085151;28;20635;-79
2021/03/27 11:04:04;;;;;;;3.77;1.20;;;15.00;99.90;;;;;;5078166;28;20190;-81
2021/03/27 11:07:21;;;;;;;3.77;1.60;;;15.30;99.90;;;;;;5077397;28;20282;-80
2021/03/27 11:10:30;;;;;;;5.40;1.10;;;15.40;99.90;;;;;;5017009;28;20251;-81
2021/03/27 11:13:38;;;;;;;6.10;1.33;;;14.60;99.90;;;;;;5082435;28;20295;-77
2021/03/27 11:16:37;;;;;;;3.63;1.10;;;13.70;99.90;;;;;;5049556;28;20298;-79
2021/03/27 11:19:32;;;;;;;10.93;1.90;;;12.70;99.90;;;;;;5090662;28;20220;-80
2021/03/27 11:22:34;;;;;;;5.57;1.60;;;11.80;99.90;;;;;;5099056;28;20285;-81
2021/03/27 11:25:43;;;;;;;6.27;2.27;;;11.30;99.90;;;;;;5074974;28;20673;-80
2021/03/27 11:28:25;;;;;;;6.83;1.50;;;11.30;99.90;;;;;;5078513;28;20667;-81
2021/03/27 11:31:32;;;;;;;9.53;1.40;;;11.80;99.90;;;;;;5087455;28;20201;-80
2021/03/27 11:34:07;;;;;;;3.40;1.00;;;11.40;99.90;;;;;;5061419;28;20647;-79
2021/03/27 11:36:42;;;;;;;5.70;1.43;;;11.30;99.90;;;;;;5074162;28;20309;-81
2021/03/27 11:39:21;;;;;;;10.13;1.70;;;12.50;99.90;;;;;;5083687;28;20203;-79
2021/03/27 11:41:59;;;;;;;5.87;1.40;;;12.60;99.90;;;;;;5080157;28;20203;-79
2021/03/27 11:44:43;;;;;;;7.40;1.40;;;13.10;99.90;;;;;;5086922;28;20206;-78
2021/03/27 11:47:22;;;;;;;7.83;1.50;;;13.90;99.90;;;;;;5102609;28;20182;-81
2021/03/27 11:49:56;;;;;;;19.40;9.67;;;13.90;99.90;;;;;;5096977;28;20209;-79
2021/03/27 11:52:29;;;;;;;7.07;1.40;;;14.30;99.90;;;;;;5115796;28;20218;-81
2021/03/27 11:55:05;;;;;;;4.10;1.07;;;14.90;99.90;;;;;;5116154;28;20220;-80
2021/03/27 11:57:45;;;;;;;4.97;1.40;;;14.50;99.90;;;;;;5099349;28;20223;-79
2021/03/27 12:03:26;;;;;;;4.37;0.80;;;13.70;99.90;;;;;;5087442;28;20687;-82
2021/03/27 12:06:00;;;;;;;5.20;1.13;;;13.80;99.90;;;;;;5073886;28;20313;-81
2021/03/27 12:08:32;;;;;;;4.37;1.10;;;13.50;99.90;;;;;;5083023;28;20259;-80
2021/03/27 12:11:08;;;;;;;4.37;1.03;;;13.90;99.90;;;;;;5081666;28;20191;-81
2021/03/27 12:13:44;;;;;;;4.73;1.37;;;14.50;99.90;;;;;;5079442;28;20222;-80
2021/03/27 12:16:20;;;;;;;4.07;1.00;;;14.60;99.90;;;;;;5080600;28;20249;-79
2021/03/27 12:19:23;;;;;;;2.80;1.00;;;14.30;99.90;;;;;;5078899;28;20218;-80
2021/03/27 12:22:01;;;;;;;7.83;1.50;;;13.90;99.90;;;;;;5087658;28;20232;-80
2021/03/27 12:24:43;;;;;;;5.47;1.10;;;13.60;99.90;;;;;;5079392;28;20746;-79
2021/03/27 12:27:23;;;;;;;9.57;0.90;;;13.80;99.90;;;;;;5084833;28;20206;-79
2021/03/27 12:30:00;;;;;;;3.97;0.90;;;14.00;99.90;;;;;;5080812;28;20253;-85
2021/03/27 12:32:43;;;;;;;5.73;0.83;;;14.10;99.90;;;;;;5090453;28;20559;-84
2021/03/27 12:35:21;;;;;;;4.93;1.27;;;14.00;99.90;;;;;;5089947;28;20213;-82
2021/03/27 12:38:08;;;;;;;5.83;1.10;;;14.20;99.90;;;;;;5088192;28;20206;-82
2021/03/27 12:40:38;;;;;;;5.83;1.43;;;14.20;99.90;;;;;;5082519;28;20203;-83
2021/03/27 12:43:07;;;;;;;4.47;1.17;;;14.40;99.90;;;;;;5091063;28;20285;-80
2021/03/27 12:45:38;;;;;;;8.43;1.50;;;14.40;99.90;;;;;;5084449;28;20205;-84
2021/03/27 12:48:27;;;;;;;3.37;1.37;;;14.20;99.90;;;;;;5089711;28;20679;-84
2021/03/27 12:51:08;;;;;;;5.73;1.60;;;14.20;99.90;;;;;;5081239;28;20460;-81
2021/03/27 12:54:08;;;;;;;8.77;1.43;;;14.50;99.90;;;;;;5087240;28;20206;-81
2021/03/27 12:56:59;;;;;;;6.77;1.67;;;14.50;99.90;;;;;;5079673;28;20202;-82
2021/03/27 12:59:34;;;;;;;9.33;1.63;;;14.50;99.90;;;;;;5079319;28;20244;-83
2021/03/27 13:02:27;;;;;;;4.90;1.33;;;14.50;99.90;;;;;;5088741;28;20195;-82
2021/03/27 13:05:17;;;;;;;9.10;1.73;;;13.80;99.90;;;;;;5082692;28;20210;-81
2021/03/27 13:07:54;;;;;;;9.17;1.40;;;13.50;99.90;;;;;;5083002;28;20251;-83
2021/03/27 13:10:47;;;;;;;6.63;1.20;;;13.00;99.90;;;;;;5090538;28;20551;-82
2021/03/27 13:13:58;;;;;;;6.50;1.43;;;12.40;99.90;;;;;;5083051;28;20190;-83
2021/03/27 13:16:28;;;;;;;6.57;1.60;;;12.20;99.90;;;;;;5077084;28;20610;-81
2021/03/27 13:19:04;;;;;;;7.57;1.43;;;12.00;99.90;;;;;;5080925;28;20268;-82
2021/03/27 13:21:58;;;;;;;8.60;1.30;;;12.10;99.90;;;;;;5071982;28;20234;-81
2021/03/27 13:25:09;;;;;;;7.27;1.70;;;12.50;99.90;;;;;;5064211;28;20215;-80
2021/03/27 13:27:43;;;;;;;6.93;1.53;;;13.30;99.90;;;;;;5042226;28;20203;-83
2021/03/27 13:30:21;;;;;;;7.23;1.40;;;13.30;99.90;;;;;;5069517;28;20206;-80
2021/03/27 13:32:56;;;;;;;8.53;1.43;;;13.20;99.90;;;;;;5066037;28;20629;-82
2021/03/27 13:35:29;;;;;;;5.73;1.30;;;13.10;99.90;;;;;;5088307;28;20600;-80
2021/03/27 13:38:00;;;;;;;5.17;1.40;;;12.80;99.90;;;;;;5083112;28;20263;-79
2021/03/27 13:40:30;;;;;;;7.27;1.30;;;12.70;99.90;;;;;;5084258;28;20213;-79
2021/03/27 13:43:07;;;;;;;5.67;1.50;;;12.60;99.90;;;;;;5085890;28;20660;-79
2021/03/27 13:45:44;;;;;;;5.90;1.60;;;12.40;99.90;;;;;;5080803;28;20265;-80
2021/03/27 13:48:35;;;;;;;4.23;1.40;;;12.30;99.90;;;;;;5080346;28;20216;-79
2021/03/27 13:51:09;;;;;;;6.20;1.37;;;12.00;99.90;;;;;;5086241;28;20560;-83
2021/03/27 13:53:43;;;;;;;7.23;2.17;;;11.80;99.90;;;;;;5072176;28;20248;-77
2021/03/27 13:56:31;;;;;;;11.83;2.00;;;11.80;99.90;;;;;;5073710;28;20229;-79
2021/03/27 13:59:27;;;;;;;11.47;1.70;;;11.80;99.90;;;;;;5068173;28;20241;-79
2021/03/27 14:02:38;;;;;;;5.20;1.40;;;12.00;99.90;;;;;;5073152;28;20291;-78
2021/03/27 14:05:14;;;;;;;6.07;1.30;;;12.20;99.90;;;;;;5081345;28;20209;-80
2021/03/27 14:07:43;;;;;;;4.37;1.47;;;12.40;99.90;;;;;;5082009;28;20199;-78
2021/03/27 14:10:16;;;;;;;4.00;1.30;;;13.00;99.90;;;;;;5072270;28;20203;-78
2021/03/27 14:12:49;;;;;;;3.13;1.07;;;13.50;99.90;;;;;;5076616;28;20219;-79
2021/03/27 14:15:31;;;;;;;6.33;1.20;;;13.70;99.90;;;;;;5087091;28;20253;-77